sensor_id;sensor_type;location;lat;lon;timestamp;P1;durP1;ratioP1;P2;durP2;ratioP2
8333;SDS011;4204;43.004;23.052;2022-09-25T00:00:46;6.80;;;4.00;;
8333;SDS011;4204;43.004;23.052;2022-09-25T00:03:15;5.80;;;3.97;;
8333;SDS011;4204;43.004;23.052;2022-09-25T00:05:44;4.77;;;3.50;;
8333;SDS011;4204;43.004;23.052;2022-09-25T00:08:14;3.87;;;2.93;;
8333;SDS011;4204;43.004;23.052;2022-09-25T00:10:43;4.37;;;3.50;;
8333;SDS011;4204;43.004;23.052;2022-09-25T00:13:12;4.97;;;3.37;;
8333;SDS011;4204;43.004;23.052;2022-09-25T00:15:44;5.77;;;3.93;;
8333;SDS011;4204;43.004;23.052;2022-09-25T00:18:13;4.80;;;4.00;;
8333;SDS011;4204;43.004;23.052;2022-09-25T00:20:40;4.77;;;3.67;;
8333;SDS011;4204;43.004;23.052;2022-09-25T00:23:07;4.90;;;3.87;;
8333;SDS011;4204;43.004;23.052;2022-09-25T00:25:36;3.63;;;3.17;;
8333;SDS011;4204;43.004;23.052;2022-09-25T00:28:04;4.70;;;3.50;;
8333;SDS011;4204;43.004;23.052;2022-09-25T00:30:32;4.60;;;3.63;;
8333;SDS011;4204;43.004;23.052;2022-09-25T00:32:59;6.07;;;4.37;;
8333;SDS011;4204;43.004;23.052;2022-09-25T00:35:27;5.63;;;4.50;;
8333;SDS011;4204;43.004;23.052;2022-09-25T00:37:55;4.63;;;3.77;;
8333;SDS011;4204;43.004;23.052;2022-09-25T00:40:22;5.23;;;3.70;;
8333;SDS011;4204;43.004;23.052;2022-09-25T00:42:51;8.03;;;4.70;;
8333;SDS011;4204;43.004;23.052;2022-09-25T00:45:19;6.60;;;3.60;;
8333;SDS011;4204;43.004;23.052;2022-09-25T00:47:49;8.50;;;3.87;;
8333;SDS011;4204;43.004;23.052;2022-09-25T00:50:31;8.97;;;4.27;;
8333;SDS011;4204;43.004;23.052;2022-09-25T00:53:04;6.17;;;4.27;;
8333;SDS011;4204;43.004;23.052;2022-09-25T00:55:34;5.90;;;4.10;;
8333;SDS011;4204;43.004;23.052;2022-09-25T00:58:05;8.17;;;4.03;;
8333;SDS011;4204;43.004;23.052;2022-09-25T01:00:34;9.67;;;6.13;;
8333;SDS011;4204;43.004;23.052;2022-09-25T01:03:02;7.13;;;4.10;;
8333;SDS011;4204;43.004;23.052;2022-09-25T01:05:34;6.27;;;4.23;;
8333;SDS011;4204;43.004;23.052;2022-09-25T01:08:04;7.40;;;5.70;;
8333;SDS011;4204;43.004;23.052;2022-09-25T01:10:35;6.83;;;4.07;;
8333;SDS011;4204;43.004;23.052;2022-09-25T01:13:02;8.93;;;6.23;;
8333;SDS011;4204;43.004;23.052;2022-09-25T01:15:35;7.53;;;4.90;;
8333;SDS011;4204;43.004;23.052;2022-09-25T01:18:10;5.60;;;4.00;;
8333;SDS011;4204;43.004;23.052;2022-09-25T01:20:58;7.90;;;5.40;;
8333;SDS011;4204;43.004;23.052;2022-09-25T01:23:46;5.97;;;4.17;;
8333;SDS011;4204;43.004;23.052;2022-09-25T01:26:30;6.03;;;4.50;;
8333;SDS011;4204;43.004;23.052;2022-09-25T01:29:19;19.00;;;9.37;;
8333;SDS011;4204;43.004;23.052;2022-09-25T01:31:51;7.63;;;4.97;;
8333;SDS011;4204;43.004;23.052;2022-09-25T01:34:30;5.73;;;4.17;;
8333;SDS011;4204;43.004;23.052;2022-09-25T01:37:05;5.00;;;3.93;;
8333;SDS011;4204;43.004;23.052;2022-09-25T01:39:36;5.70;;;4.07;;
8333;SDS011;4204;43.004;23.052;2022-09-25T01:42:08;17.47;;;4.43;;
8333;SDS011;4204;43.004;23.052;2022-09-25T01:44:45;4.73;;;3.77;;
8333;SDS011;4204;43.004;23.052;2022-09-25T01:47:19;6.60;;;4.50;;
8333;SDS011;4204;43.004;23.052;2022-09-25T01:49:50;6.73;;;3.90;;
8333;SDS011;4204;43.004;23.052;2022-09-25T01:52:22;5.87;;;4.03;;
8333;SDS011;4204;43.004;23.052;2022-09-25T01:54:53;5.43;;;3.87;;
8333;SDS011;4204;43.004;23.052;2022-09-25T01:57:26;5.00;;;3.80;;
8333;SDS011;4204;43.004;23.052;2022-09-25T02:00:04;5.57;;;3.90;;
8333;SDS011;4204;43.004;23.052;2022-09-25T02:02:44;4.73;;;3.57;;
8333;SDS011;4204;43.004;23.052;2022-09-25T02:05:21;4.23;;;3.53;;
8333;SDS011;4204;43.004;23.052;2022-09-25T02:07:54;6.03;;;4.33;;
8333;SDS011;4204;43.004;23.052;2022-09-25T02:10:29;4.53;;;3.60;;
8333;SDS011;4204;43.004;23.052;2022-09-25T02:13:04;4.60;;;3.80;;
8333;SDS011;4204;43.004;23.052;2022-09-25T02:15:37;4.37;;;3.57;;
8333;SDS011;4204;43.004;23.052;2022-09-25T02:18:08;4.33;;;3.90;;
8333;SDS011;4204;43.004;23.052;2022-09-25T02:20:56;5.97;;;3.33;;
8333;SDS011;4204;43.004;23.052;2022-09-25T02:23:29;4.93;;;3.93;;
8333;SDS011;4204;43.004;23.052;2022-09-25T02:26:06;7.47;;;3.63;;
8333;SDS011;4204;43.004;23.052;2022-09-25T02:28:39;6.67;;;4.80;;
8333;SDS011;4204;43.004;23.052;2022-09-25T02:31:09;6.90;;;3.93;;
8333;SDS011;4204;43.004;23.052;2022-09-25T02:33:39;6.37;;;4.67;;
8333;SDS011;4204;43.004;23.052;2022-09-25T02:36:15;9.03;;;5.60;;
8333;SDS011;4204;43.004;23.052;2022-09-25T02:38:43;6.90;;;5.00;;
8333;SDS011;4204;43.004;23.052;2022-09-25T02:41:15;5.63;;;4.07;;
8333;SDS011;4204;43.004;23.052;2022-09-25T02:43:49;4.33;;;3.60;;
8333;SDS011;4204;43.004;23.052;2022-09-25T02:46:28;4.77;;;3.60;;
8333;SDS011;4204;43.004;23.052;2022-09-25T02:49:07;5.50;;;4.00;;
8333;SDS011;4204;43.004;23.052;2022-09-25T02:51:43;5.83;;;3.87;;
8333;SDS011;4204;43.004;23.052;2022-09-25T02:54:20;5.93;;;3.93;;
8333;SDS011;4204;43.004;23.052;2022-09-25T02:56:53;4.17;;;3.43;;
8333;SDS011;4204;43.004;23.052;2022-09-25T02:59:29;5.57;;;4.00;;
8333;SDS011;4204;43.004;23.052;2022-09-25T03:02:02;4.90;;;3.53;;
8333;SDS011;4204;43.004;23.052;2022-09-25T03:04:30;6.10;;;3.50;;
8333;SDS011;4204;43.004;23.052;2022-09-25T03:07:04;5.70;;;3.77;;
8333;SDS011;4204;43.004;23.052;2022-09-25T03:09:35;6.83;;;4.30;;
8333;SDS011;4204;43.004;23.052;2022-09-25T03:12:07;5.97;;;4.27;;
8333;SDS011;4204;43.004;23.052;2022-09-25T03:14:35;5.80;;;3.80;;
8333;SDS011;4204;43.004;23.052;2022-09-25T03:17:04;4.70;;;3.70;;
8333;SDS011;4204;43.004;23.052;2022-09-25T03:19:33;5.23;;;4.07;;
8333;SDS011;4204;43.004;23.052;2022-09-25T03:22:01;7.20;;;4.67;;
8333;SDS011;4204;43.004;23.052;2022-09-25T03:24:29;6.90;;;4.40;;
8333;SDS011;4204;43.004;23.052;2022-09-25T03:26:56;5.63;;;4.50;;
8333;SDS011;4204;43.004;23.052;2022-09-25T03:29:24;4.43;;;4.00;;
8333;SDS011;4204;43.004;23.052;2022-09-25T03:31:52;5.80;;;4.20;;
8333;SDS011;4204;43.004;23.052;2022-09-25T03:34:21;6.30;;;4.70;;
8333;SDS011;4204;43.004;23.052;2022-09-25T03:36:49;4.93;;;3.83;;
8333;SDS011;4204;43.004;23.052;2022-09-25T03:39:16;5.53;;;3.60;;
8333;SDS011;4204;43.004;23.052;2022-09-25T03:41:44;4.53;;;3.30;;
8333;SDS011;4204;43.004;23.052;2022-09-25T03:44:12;5.00;;;3.67;;
8333;SDS011;4204;43.004;23.052;2022-09-25T03:46:40;4.27;;;3.60;;
8333;SDS011;4204;43.004;23.052;2022-09-25T03:49:08;6.43;;;3.80;;
8333;SDS011;4204;43.004;23.052;2022-09-25T03:51:39;5.00;;;3.60;;
8333;SDS011;4204;43.004;23.052;2022-09-25T03:54:07;6.20;;;4.37;;
8333;SDS011;4204;43.004;23.052;2022-09-25T03:56:34;5.67;;;3.33;;
8333;SDS011;4204;43.004;23.052;2022-09-25T03:59:02;6.50;;;4.20;;
8333;SDS011;4204;43.004;23.052;2022-09-25T04:01:29;7.30;;;4.67;;
8333;SDS011;4204;43.004;23.052;2022-09-25T04:03:57;4.60;;;3.90;;
8333;SDS011;4204;43.004;23.052;2022-09-25T04:06:26;7.27;;;4.57;;
8333;SDS011;4204;43.004;23.052;2022-09-25T04:08:55;6.87;;;4.97;;
8333;SDS011;4204;43.004;23.052;2022-09-25T04:11:23;6.13;;;4.17;;
8333;SDS011;4204;43.004;23.052;2022-09-25T04:13:51;6.87;;;3.83;;
8333;SDS011;4204;43.004;23.052;2022-09-25T04:16:19;5.67;;;3.83;;
8333;SDS011;4204;43.004;23.052;2022-09-25T04:18:46;5.33;;;4.10;;
8333;SDS011;4204;43.004;23.052;2022-09-25T04:21:14;5.93;;;4.20;;
8333;SDS011;4204;43.004;23.052;2022-09-25T04:23:42;7.30;;;4.53;;
8333;SDS011;4204;43.004;23.052;2022-09-25T04:26:33;5.83;;;4.40;;
8333;SDS011;4204;43.004;23.052;2022-09-25T04:29:01;5.60;;;4.23;;
8333;SDS011;4204;43.004;23.052;2022-09-25T04:31:28;10.53;;;5.10;;
8333;SDS011;4204;43.004;23.052;2022-09-25T04:33:57;5.50;;;4.50;;
8333;SDS011;4204;43.004;23.052;2022-09-25T04:36:23;5.70;;;4.33;;
8333;SDS011;4204;43.004;23.052;2022-09-25T04:38:51;5.77;;;4.30;;
8333;SDS011;4204;43.004;23.052;2022-09-25T04:41:19;5.77;;;3.60;;
8333;SDS011;4204;43.004;23.052;2022-09-25T04:43:48;6.47;;;4.10;;
8333;SDS011;4204;43.004;23.052;2022-09-25T04:46:15;5.83;;;4.43;;
8333;SDS011;4204;43.004;23.052;2022-09-25T04:48:43;6.77;;;3.93;;
8333;SDS011;4204;43.004;23.052;2022-09-25T04:51:12;8.17;;;4.50;;
8333;SDS011;4204;43.004;23.052;2022-09-25T04:53:39;5.97;;;4.00;;
8333;SDS011;4204;43.004;23.052;2022-09-25T04:56:07;6.73;;;4.73;;
8333;SDS011;4204;43.004;23.052;2022-09-25T04:58:36;7.87;;;5.33;;
8333;SDS011;4204;43.004;23.052;2022-09-25T05:01:06;5.27;;;4.27;;
8333;SDS011;4204;43.004;23.052;2022-09-25T05:03:35;6.70;;;4.40;;
8333;SDS011;4204;43.004;23.052;2022-09-25T05:06:03;5.47;;;4.33;;
8333;SDS011;4204;43.004;23.052;2022-09-25T05:08:31;5.63;;;4.10;;
8333;SDS011;4204;43.004;23.052;2022-09-25T05:10:58;7.10;;;4.40;;
8333;SDS011;4204;43.004;23.052;2022-09-25T05:13:26;6.30;;;5.20;;
8333;SDS011;4204;43.004;23.052;2022-09-25T05:15:54;12.70;;;6.57;;
8333;SDS011;4204;43.004;23.052;2022-09-25T05:18:23;23.60;;;11.47;;
8333;SDS011;4204;43.004;23.052;2022-09-25T05:20:51;25.40;;;11.03;;
8333;SDS011;4204;43.004;23.052;2022-09-25T05:23:19;15.97;;;8.97;;
8333;SDS011;4204;43.004;23.052;2022-09-25T05:25:50;12.47;;;7.97;;
8333;SDS011;4204;43.004;23.052;2022-09-25T05:28:20;23.73;;;11.43;;
8333;SDS011;4204;43.004;23.052;2022-09-25T05:30:48;11.77;;;7.03;;
8333;SDS011;4204;43.004;23.052;2022-09-25T05:33:16;15.77;;;7.43;;
8333;SDS011;4204;43.004;23.052;2022-09-25T05:35:45;14.93;;;7.17;;
8333;SDS011;4204;43.004;23.052;2022-09-25T05:38:14;12.67;;;6.83;;
8333;SDS011;4204;43.004;23.052;2022-09-25T05:40:42;11.37;;;6.23;;
8333;SDS011;4204;43.004;23.052;2022-09-25T05:43:09;7.80;;;5.20;;
8333;SDS011;4204;43.004;23.052;2022-09-25T05:45:38;11.13;;;6.57;;
8333;SDS011;4204;43.004;23.052;2022-09-25T05:48:06;11.17;;;6.20;;
8333;SDS011;4204;43.004;23.052;2022-09-25T05:50:34;7.53;;;5.07;;
8333;SDS011;4204;43.004;23.052;2022-09-25T05:53:03;13.13;;;5.70;;
8333;SDS011;4204;43.004;23.052;2022-09-25T05:55:31;6.57;;;4.93;;
8333;SDS011;4204;43.004;23.052;2022-09-25T05:58:00;6.23;;;4.43;;
8333;SDS011;4204;43.004;23.052;2022-09-25T06:00:28;8.40;;;4.43;;
8333;SDS011;4204;43.004;23.052;2022-09-25T06:02:57;5.67;;;4.20;;
8333;SDS011;4204;43.004;23.052;2022-09-25T06:05:25;7.73;;;4.43;;
8333;SDS011;4204;43.004;23.052;2022-09-25T06:07:53;5.63;;;4.70;;
8333;SDS011;4204;43.004;23.052;2022-09-25T06:10:23;7.53;;;5.10;;
8333;SDS011;4204;43.004;23.052;2022-09-25T06:12:51;8.60;;;5.00;;
8333;SDS011;4204;43.004;23.052;2022-09-25T06:15:23;6.20;;;4.77;;
8333;SDS011;4204;43.004;23.052;2022-09-25T06:17:52;6.17;;;3.90;;
8333;SDS011;4204;43.004;23.052;2022-09-25T06:20:20;7.53;;;5.03;;
8333;SDS011;4204;43.004;23.052;2022-09-25T06:22:51;27.23;;;14.57;;
8333;SDS011;4204;43.004;23.052;2022-09-25T06:25:19;11.10;;;6.20;;
8333;SDS011;4204;43.004;23.052;2022-09-25T06:27:51;18.83;;;8.97;;
8333;SDS011;4204;43.004;23.052;2022-09-25T06:32:50;10.77;;;6.47;;
8333;SDS011;4204;43.004;23.052;2022-09-25T06:35:23;3.63;;;3.30;;
8333;SDS011;4204;43.004;23.052;2022-09-25T06:37:51;4.67;;;3.70;;
8333;SDS011;4204;43.004;23.052;2022-09-25T06:40:22;5.23;;;3.37;;
8333;SDS011;4204;43.004;23.052;2022-09-25T06:42:54;4.60;;;3.87;;
8333;SDS011;4204;43.004;23.052;2022-09-25T06:45:22;5.77;;;4.03;;
8333;SDS011;4204;43.004;23.052;2022-09-25T06:47:53;6.33;;;4.90;;
8333;SDS011;4204;43.004;23.052;2022-09-25T06:50:26;8.90;;;5.30;;
8333;SDS011;4204;43.004;23.052;2022-09-25T06:52:56;6.70;;;4.60;;
8333;SDS011;4204;43.004;23.052;2022-09-25T06:55:25;8.13;;;5.00;;
8333;SDS011;4204;43.004;23.052;2022-09-25T06:57:53;5.17;;;4.47;;
8333;SDS011;4204;43.004;23.052;2022-09-25T07:00:21;5.93;;;4.90;;
8333;SDS011;4204;43.004;23.052;2022-09-25T07:02:49;5.33;;;4.57;;
8333;SDS011;4204;43.004;23.052;2022-09-25T07:05:35;7.87;;;5.13;;
8333;SDS011;4204;43.004;23.052;2022-09-25T07:08:03;5.30;;;3.93;;
8333;SDS011;4204;43.004;23.052;2022-09-25T07:10:31;5.27;;;3.90;;
8333;SDS011;4204;43.004;23.052;2022-09-25T07:12:59;6.17;;;3.50;;
8333;SDS011;4204;43.004;23.052;2022-09-25T07:15:27;4.07;;;3.63;;
8333;SDS011;4204;43.004;23.052;2022-09-25T07:17:55;4.13;;;3.10;;
8333;SDS011;4204;43.004;23.052;2022-09-25T07:20:22;5.63;;;3.60;;
8333;SDS011;4204;43.004;23.052;2022-09-25T07:22:52;3.73;;;3.23;;
8333;SDS011;4204;43.004;23.052;2022-09-25T07:25:19;5.27;;;3.70;;
8333;SDS011;4204;43.004;23.052;2022-09-25T07:27:47;3.90;;;3.30;;
8333;SDS011;4204;43.004;23.052;2022-09-25T07:30:15;4.43;;;3.47;;
8333;SDS011;4204;43.004;23.052;2022-09-25T07:32:42;4.37;;;3.70;;
8333;SDS011;4204;43.004;23.052;2022-09-25T07:35:10;6.20;;;3.67;;
8333;SDS011;4204;43.004;23.052;2022-09-25T07:37:38;4.33;;;3.40;;
8333;SDS011;4204;43.004;23.052;2022-09-25T07:40:08;5.87;;;3.10;;
8333;SDS011;4204;43.004;23.052;2022-09-25T07:42:38;3.50;;;2.87;;
8333;SDS011;4204;43.004;23.052;2022-09-25T07:45:06;5.70;;;2.70;;
8333;SDS011;4204;43.004;23.052;2022-09-25T07:47:34;4.30;;;3.57;;
8333;SDS011;4204;43.004;23.052;2022-09-25T07:50:02;5.60;;;3.47;;
8333;SDS011;4204;43.004;23.052;2022-09-25T07:52:30;5.43;;;3.30;;
8333;SDS011;4204;43.004;23.052;2022-09-25T07:55:00;3.80;;;3.20;;
8333;SDS011;4204;43.004;23.052;2022-09-25T07:57:29;5.57;;;3.80;;
8333;SDS011;4204;43.004;23.052;2022-09-25T07:59:56;5.63;;;3.73;;
8333;SDS011;4204;43.004;23.052;2022-09-25T08:02:25;6.03;;;3.90;;
8333;SDS011;4204;43.004;23.052;2022-09-25T08:04:53;4.70;;;3.40;;
8333;SDS011;4204;43.004;23.052;2022-09-25T08:07:20;6.07;;;3.50;;
8333;SDS011;4204;43.004;23.052;2022-09-25T08:09:48;4.87;;;3.73;;
8333;SDS011;4204;43.004;23.052;2022-09-25T08:12:16;4.60;;;3.90;;
8333;SDS011;4204;43.004;23.052;2022-09-25T08:14:45;6.10;;;3.40;;
8333;SDS011;4204;43.004;23.052;2022-09-25T08:17:13;4.23;;;3.17;;
8333;SDS011;4204;43.004;23.052;2022-09-25T08:19:40;5.73;;;3.57;;
8333;SDS011;4204;43.004;23.052;2022-09-25T08:22:08;5.97;;;3.70;;
8333;SDS011;4204;43.004;23.052;2022-09-25T08:24:36;3.67;;;3.23;;
8333;SDS011;4204;43.004;23.052;2022-09-25T08:27:04;3.97;;;3.10;;
8333;SDS011;4204;43.004;23.052;2022-09-25T08:29:32;3.87;;;3.00;;
8333;SDS011;4204;43.004;23.052;2022-09-25T08:32:02;4.07;;;3.13;;
8333;SDS011;4204;43.004;23.052;2022-09-25T08:34:29;5.93;;;3.23;;
8333;SDS011;4204;43.004;23.052;2022-09-25T08:36:57;4.23;;;3.00;;
8333;SDS011;4204;43.004;23.052;2022-09-25T08:39:25;3.17;;;2.87;;
8333;SDS011;4204;43.004;23.052;2022-09-25T08:41:53;7.40;;;3.27;;
8333;SDS011;4204;43.004;23.052;2022-09-25T08:44:23;3.60;;;3.10;;
8333;SDS011;4204;43.004;23.052;2022-09-25T08:46:56;4.10;;;3.27;;
8333;SDS011;4204;43.004;23.052;2022-09-25T08:49:45;4.03;;;3.00;;
8333;SDS011;4204;43.004;23.052;2022-09-25T08:52:21;3.67;;;3.23;;
8333;SDS011;4204;43.004;23.052;2022-09-25T08:54:49;7.90;;;3.80;;
8333;SDS011;4204;43.004;23.052;2022-09-25T08:57:21;4.83;;;3.40;;
8333;SDS011;4204;43.004;23.052;2022-09-25T08:59:56;4.83;;;3.77;;
8333;SDS011;4204;43.004;23.052;2022-09-25T09:02:32;3.63;;;3.20;;
8333;SDS011;4204;43.004;23.052;2022-09-25T09:05:06;5.07;;;3.17;;
8333;SDS011;4204;43.004;23.052;2022-09-25T09:07:42;4.03;;;3.60;;
8333;SDS011;4204;43.004;23.052;2022-09-25T09:10:17;3.50;;;3.13;;
8333;SDS011;4204;43.004;23.052;2022-09-25T09:12:54;3.40;;;3.10;;
8333;SDS011;4204;43.004;23.052;2022-09-25T09:15:33;4.53;;;3.40;;
8333;SDS011;4204;43.004;23.052;2022-09-25T09:18:18;4.93;;;3.40;;
8333;SDS011;4204;43.004;23.052;2022-09-25T09:20:51;5.07;;;3.40;;
8333;SDS011;4204;43.004;23.052;2022-09-25T09:23:20;2.97;;;2.63;;
8333;SDS011;4204;43.004;23.052;2022-09-25T09:25:53;4.23;;;3.50;;
8333;SDS011;4204;43.004;23.052;2022-09-25T09:28:36;6.07;;;3.83;;
8333;SDS011;4204;43.004;23.052;2022-09-25T09:31:23;4.20;;;3.40;;
8333;SDS011;4204;43.004;23.052;2022-09-25T09:33:58;4.33;;;3.27;;
8333;SDS011;4204;43.004;23.052;2022-09-25T09:36:41;3.70;;;3.33;;
8333;SDS011;4204;43.004;23.052;2022-09-25T09:39:16;3.83;;;3.37;;
8333;SDS011;4204;43.004;23.052;2022-09-25T09:41:53;4.63;;;3.33;;
8333;SDS011;4204;43.004;23.052;2022-09-25T09:44:32;3.57;;;3.23;;
8333;SDS011;4204;43.004;23.052;2022-09-25T09:47:15;3.27;;;2.97;;
8333;SDS011;4204;43.004;23.052;2022-09-25T09:50:12;4.00;;;3.23;;
8333;SDS011;4204;43.004;23.052;2022-09-25T09:52:50;4.13;;;3.07;;
8333;SDS011;4204;43.004;23.052;2022-09-25T09:55:28;6.00;;;3.90;;
8333;SDS011;4204;43.004;23.052;2022-09-25T09:58:02;3.57;;;3.27;;
8333;SDS011;4204;43.004;23.052;2022-09-25T10:00:37;4.67;;;3.70;;
8333;SDS011;4204;43.004;23.052;2022-09-25T10:03:09;5.27;;;3.60;;
8333;SDS011;4204;43.004;23.052;2022-09-25T10:05:40;4.10;;;3.60;;
8333;SDS011;4204;43.004;23.052;2022-09-25T10:08:13;3.73;;;3.10;;
8333;SDS011;4204;43.004;23.052;2022-09-25T10:10:42;4.53;;;3.40;;
8333;SDS011;4204;43.004;23.052;2022-09-25T10:13:14;3.67;;;3.03;;
8333;SDS011;4204;43.004;23.052;2022-09-25T10:15:46;4.03;;;3.40;;
8333;SDS011;4204;43.004;23.052;2022-09-25T10:18:18;4.80;;;3.07;;
8333;SDS011;4204;43.004;23.052;2022-09-25T10:20:50;4.67;;;3.07;;
8333;SDS011;4204;43.004;23.052;2022-09-25T10:23:32;3.70;;;3.17;;
8333;SDS011;4204;43.004;23.052;2022-09-25T10:26:09;4.40;;;3.50;;
8333;SDS011;4204;43.004;23.052;2022-09-25T10:28:49;4.87;;;3.10;;
8333;SDS011;4204;43.004;23.052;2022-09-25T10:31:17;3.37;;;3.00;;
8333;SDS011;4204;43.004;23.052;2022-09-25T10:33:59;3.80;;;3.00;;
8333;SDS011;4204;43.004;23.052;2022-09-25T10:36:30;6.47;;;3.20;;
8333;SDS011;4204;43.004;23.052;2022-09-25T10:39:18;6.27;;;3.13;;
8333;SDS011;4204;43.004;23.052;2022-09-25T10:41:52;3.93;;;3.13;;
8333;SDS011;4204;43.004;23.052;2022-09-25T10:44:21;3.77;;;3.10;;
8333;SDS011;4204;43.004;23.052;2022-09-25T10:46:54;4.47;;;3.20;;
8333;SDS011;4204;43.004;23.052;2022-09-25T10:49:48;6.23;;;3.00;;
8333;SDS011;4204;43.004;23.052;2022-09-25T10:52:43;4.27;;;2.90;;
8333;SDS011;4204;43.004;23.052;2022-09-25T10:55:20;4.60;;;3.00;;
8333;SDS011;4204;43.004;23.052;2022-09-25T10:57:56;3.67;;;2.80;;
8333;SDS011;4204;43.004;23.052;2022-09-25T11:00:40;4.73;;;3.00;;
8333;SDS011;4204;43.004;23.052;2022-09-25T11:03:20;8.43;;;3.00;;
8333;SDS011;4204;43.004;23.052;2022-09-25T11:05:53;3.33;;;3.03;;
8333;SDS011;4204;43.004;23.052;2022-09-25T11:08:23;3.43;;;3.13;;
8333;SDS011;4204;43.004;23.052;2022-09-25T11:10:56;5.50;;;2.93;;
8333;SDS011;4204;43.004;23.052;2022-09-25T11:13:26;4.50;;;2.90;;
8333;SDS011;4204;43.004;23.052;2022-09-25T11:16:02;3.50;;;3.20;;
8333;SDS011;4204;43.004;23.052;2022-09-25T11:18:35;3.83;;;3.00;;
8333;SDS011;4204;43.004;23.052;2022-09-25T11:21:07;3.87;;;3.53;;
8333;SDS011;4204;43.004;23.052;2022-09-25T11:23:48;5.77;;;3.30;;
8333;SDS011;4204;43.004;23.052;2022-09-25T11:26:31;3.67;;;3.10;;
8333;SDS011;4204;43.004;23.052;2022-09-25T11:29:04;5.43;;;3.13;;
8333;SDS011;4204;43.004;23.052;2022-09-25T11:31:47;4.30;;;3.10;;
8333;SDS011;4204;43.004;23.052;2022-09-25T11:34:22;3.80;;;3.13;;
8333;SDS011;4204;43.004;23.052;2022-09-25T11:37:01;3.30;;;3.00;;
8333;SDS011;4204;43.004;23.052;2022-09-25T11:39:37;4.47;;;3.23;;
8333;SDS011;4204;43.004;23.052;2022-09-25T11:42:29;3.27;;;2.90;;
8333;SDS011;4204;43.004;23.052;2022-09-25T11:45:03;3.77;;;3.23;;
8333;SDS011;4204;43.004;23.052;2022-09-25T11:47:37;8.03;;;6.43;;
8333;SDS011;4204;43.004;23.052;2022-09-25T11:50:11;4.13;;;3.50;;
8333;SDS011;4204;43.004;23.052;2022-09-25T11:52:44;4.00;;;3.17;;
8333;SDS011;4204;43.004;23.052;2022-09-25T11:55:38;6.20;;;4.10;;
8333;SDS011;4204;43.004;23.052;2022-09-25T11:58:19;7.73;;;4.57;;
8333;SDS011;4204;43.004;23.052;2022-09-25T12:01:02;4.50;;;2.90;;
8333;SDS011;4204;43.004;23.052;2022-09-25T12:03:43;5.03;;;3.30;;
8333;SDS011;4204;43.004;23.052;2022-09-25T12:09:32;3.73;;;3.33;;
8333;SDS011;4204;43.004;23.052;2022-09-25T12:12:11;5.40;;;3.40;;
8333;SDS011;4204;43.004;23.052;2022-09-25T12:14:48;4.40;;;3.83;;
8333;SDS011;4204;43.004;23.052;2022-09-25T12:17:25;3.93;;;3.30;;
8333;SDS011;4204;43.004;23.052;2022-09-25T12:20:02;3.60;;;2.70;;
8333;SDS011;4204;43.004;23.052;2022-09-25T12:22:41;3.50;;;2.73;;
8333;SDS011;4204;43.004;23.052;2022-09-25T12:25:24;3.30;;;2.90;;
8333;SDS011;4204;43.004;23.052;2022-09-25T12:28:03;4.03;;;3.00;;
8333;SDS011;4204;43.004;23.052;2022-09-25T12:30:42;3.33;;;3.03;;
8333;SDS011;4204;43.004;23.052;2022-09-25T12:33:22;5.10;;;2.90;;
8333;SDS011;4204;43.004;23.052;2022-09-25T12:36:02;3.10;;;2.77;;
8333;SDS011;4204;43.004;23.052;2022-09-25T12:38:37;3.20;;;2.90;;
8333;SDS011;4204;43.004;23.052;2022-09-25T12:41:12;4.57;;;3.10;;
8333;SDS011;4204;43.004;23.052;2022-09-25T12:43:46;3.20;;;2.90;;
8333;SDS011;4204;43.004;23.052;2022-09-25T12:46:21;4.43;;;2.83;;
8333;SDS011;4204;43.004;23.052;2022-09-25T12:48:56;3.80;;;3.00;;
8333;SDS011;4204;43.004;23.052;2022-09-25T12:51:30;4.10;;;3.70;;
8333;SDS011;4204;43.004;23.052;2022-09-25T12:54:09;3.97;;;3.17;;
8333;SDS011;4204;43.004;23.052;2022-09-25T12:56:43;3.50;;;2.80;;
8333;SDS011;4204;43.004;23.052;2022-09-25T12:59:18;3.53;;;3.07;;
8333;SDS011;4204;43.004;23.052;2022-09-25T13:01:52;3.77;;;3.47;;
8333;SDS011;4204;43.004;23.052;2022-09-25T13:04:37;4.33;;;3.17;;
8333;SDS011;4204;43.004;23.052;2022-09-25T13:07:25;3.77;;;3.37;;
8333;SDS011;4204;43.004;23.052;2022-09-25T13:09:56;3.53;;;3.17;;
8333;SDS011;4204;43.004;23.052;2022-09-25T13:12:27;3.73;;;3.33;;
8333;SDS011;4204;43.004;23.052;2022-09-25T13:15:00;4.07;;;3.60;;
8333;SDS011;4204;43.004;23.052;2022-09-25T13:17:36;12.03;;;8.10;;
8333;SDS011;4204;43.004;23.052;2022-09-25T13:23:10;4.83;;;4.37;;
8333;SDS011;4204;43.004;23.052;2022-09-25T13:25:41;4.40;;;3.97;;
8333;SDS011;4204;43.004;23.052;2022-09-25T13:28:15;5.43;;;3.83;;
8333;SDS011;4204;43.004;23.052;2022-09-25T13:31:03;7.10;;;4.60;;
8333;SDS011;4204;43.004;23.052;2022-09-25T13:33:36;3.73;;;3.30;;
8333;SDS011;4204;43.004;23.052;2022-09-25T13:36:09;3.00;;;2.70;;
8333;SDS011;4204;43.004;23.052;2022-09-25T13:38:44;3.40;;;3.10;;
8333;SDS011;4204;43.004;23.052;2022-09-25T13:41:30;3.80;;;3.40;;
8333;SDS011;4204;43.004;23.052;2022-09-25T13:50:27;2.63;;;2.43;;
8333;SDS011;4204;43.004;23.052;2022-09-25T13:53:09;3.07;;;2.77;;
8333;SDS011;4204;43.004;23.052;2022-09-25T13:56:03;3.13;;;2.60;;
8333;SDS011;4204;43.004;23.052;2022-09-25T13:59:01;4.03;;;3.00;;
8333;SDS011;4204;43.004;23.052;2022-09-25T14:01:55;3.20;;;2.57;;
8333;SDS011;4204;43.004;23.052;2022-09-25T14:04:32;4.93;;;3.27;;
8333;SDS011;4204;43.004;23.052;2022-09-25T14:07:05;4.80;;;3.10;;
8333;SDS011;4204;43.004;23.052;2022-09-25T14:09:41;3.13;;;2.83;;
8333;SDS011;4204;43.004;23.052;2022-09-25T14:12:20;3.33;;;3.00;;
8333;SDS011;4204;43.004;23.052;2022-09-25T14:14:53;6.43;;;4.60;;
8333;SDS011;4204;43.004;23.052;2022-09-25T14:17:26;6.63;;;4.70;;
8333;SDS011;4204;43.004;23.052;2022-09-25T14:19:57;6.17;;;4.90;;
8333;SDS011;4204;43.004;23.052;2022-09-25T14:22:31;5.73;;;4.90;;
8333;SDS011;4204;43.004;23.052;2022-09-25T14:25:28;6.73;;;5.13;;
8333;SDS011;4204;43.004;23.052;2022-09-25T14:28:01;3.57;;;3.00;;
8333;SDS011;4204;43.004;23.052;2022-09-25T14:30:31;4.37;;;2.97;;
8333;SDS011;4204;43.004;23.052;2022-09-25T14:36:04;4.13;;;3.73;;
8333;SDS011;4204;43.004;23.052;2022-09-25T14:38:45;6.53;;;4.97;;
8333;SDS011;4204;43.004;23.052;2022-09-25T14:41:38;4.30;;;3.70;;
8333;SDS011;4204;43.004;23.052;2022-09-25T14:44:26;3.00;;;2.80;;
8333;SDS011;4204;43.004;23.052;2022-09-25T14:47:19;3.50;;;3.17;;
8333;SDS011;4204;43.004;23.052;2022-09-25T14:49:50;8.13;;;5.57;;
8333;SDS011;4204;43.004;23.052;2022-09-25T14:52:21;7.77;;;5.93;;
8333;SDS011;4204;43.004;23.052;2022-09-25T14:54:54;31.80;;;17.13;;
8333;SDS011;4204;43.004;23.052;2022-09-25T14:57:25;12.47;;;7.57;;
8333;SDS011;4204;43.004;23.052;2022-09-25T14:59:58;17.13;;;10.50;;
8333;SDS011;4204;43.004;23.052;2022-09-25T15:02:30;14.70;;;10.60;;
8333;SDS011;4204;43.004;23.052;2022-09-25T15:05:14;6.80;;;4.80;;
8333;SDS011;4204;43.004;23.052;2022-09-25T15:07:44;8.90;;;5.33;;
8333;SDS011;4204;43.004;23.052;2022-09-25T15:10:26;7.00;;;5.83;;
8333;SDS011;4204;43.004;23.052;2022-09-25T15:13:05;5.50;;;4.33;;
8333;SDS011;4204;43.004;23.052;2022-09-25T15:15:38;4.63;;;3.53;;
8333;SDS011;4204;43.004;23.052;2022-09-25T15:18:26;6.30;;;4.00;;
8333;SDS011;4204;43.004;23.052;2022-09-25T15:20:55;9.17;;;7.63;;
8333;SDS011;4204;43.004;23.052;2022-09-25T15:23:23;5.37;;;4.13;;
8333;SDS011;4204;43.004;23.052;2022-09-25T15:25:54;5.97;;;4.43;;
8333;SDS011;4204;43.004;23.052;2022-09-25T15:28:24;3.97;;;3.67;;
8333;SDS011;4204;43.004;23.052;2022-09-25T15:30:55;4.83;;;3.67;;
8333;SDS011;4204;43.004;23.052;2022-09-25T15:33:27;5.33;;;3.50;;
8333;SDS011;4204;43.004;23.052;2022-09-25T15:35:57;4.63;;;3.20;;
8333;SDS011;4204;43.004;23.052;2022-09-25T15:38:29;4.70;;;3.00;;
8333;SDS011;4204;43.004;23.052;2022-09-25T15:40:59;4.00;;;3.30;;
8333;SDS011;4204;43.004;23.052;2022-09-25T15:43:28;7.70;;;3.63;;
8333;SDS011;4204;43.004;23.052;2022-09-25T15:45:57;4.83;;;3.83;;
8333;SDS011;4204;43.004;23.052;2022-09-25T15:48:49;5.97;;;4.00;;
8333;SDS011;4204;43.004;23.052;2022-09-25T15:51:20;3.97;;;3.20;;
8333;SDS011;4204;43.004;23.052;2022-09-25T15:53:50;4.70;;;3.50;;